sensor_id;sensor_type;location;lat;lon;timestamp;P1;durP1;ratioP1;P2;durP2;ratioP2
64500;SDS011;50874;24.150;-110.320;2023-07-13T00:01:30;5.50;;;2.20;;
64500;SDS011;50874;24.150;-110.320;2023-07-13T00:03:57;10.13;;;2.70;;
64500;SDS011;50874;24.150;-110.320;2023-07-13T00:06:24;7.25;;;2.83;;
64500;SDS011;50874;24.150;-110.320;2023-07-13T00:08:55;6.28;;;2.80;;
64500;SDS011;50874;24.150;-110.320;2023-07-13T00:11:22;3.88;;;2.03;;
64500;SDS011;50874;24.150;-110.320;2023-07-13T00:13:48;4.25;;;2.65;;
64500;SDS011;50874;24.150;-110.320;2023-07-13T00:16:14;4.53;;;2.13;;
64500;SDS011;50874;24.150;-110.320;2023-07-13T00:18:41;6.00;;;2.42;;
64500;SDS011;50874;24.150;-110.320;2023-07-13T00:21:07;6.03;;;2.58;;
64500;SDS011;50874;24.150;-110.320;2023-07-13T00:23:34;6.10;;;2.78;;
64500;SDS011;50874;24.150;-110.320;2023-07-13T00:26:03;10.35;;;2.38;;
64500;SDS011;50874;24.150;-110.320;2023-07-13T00:28:30;3.40;;;2.15;;
64500;SDS011;50874;24.150;-110.320;2023-07-13T00:30:57;3.13;;;2.40;;
64500;SDS011;50874;24.150;-110.320;2023-07-13T00:33:24;4.25;;;2.65;;
64500;SDS011;50874;24.150;-110.320;2023-07-13T00:35:54;7.18;;;2.88;;
64500;SDS011;50874;24.150;-110.320;2023-07-13T00:38:21;4.30;;;2.20;;
64500;SDS011;50874;24.150;-110.320;2023-07-13T00:40:48;11.07;;;3.03;;
64500;SDS011;50874;24.150;-110.320;2023-07-13T00:43:19;7.78;;;2.40;;
64500;SDS011;50874;24.150;-110.320;2023-07-13T00:48:34;5.47;;;2.95;;
64500;SDS011;50874;24.150;-110.320;2023-07-13T00:51:00;5.63;;;2.55;;
64500;SDS011;50874;24.150;-110.320;2023-07-13T00:53:28;7.75;;;2.92;;
64500;SDS011;50874;24.150;-110.320;2023-07-13T00:55:57;6.32;;;3.08;;
64500;SDS011;50874;24.150;-110.320;2023-07-13T00:58:24;7.28;;;2.97;;
64500;SDS011;50874;24.150;-110.320;2023-07-13T01:00:51;4.43;;;2.55;;
64500;SDS011;50874;24.150;-110.320;2023-07-13T01:03:18;4.90;;;2.97;;
64500;SDS011;50874;24.150;-110.320;2023-07-13T01:05:46;7.50;;;3.05;;
64500;SDS011;50874;24.150;-110.320;2023-07-13T01:08:14;5.22;;;2.75;;
64500;SDS011;50874;24.150;-110.320;2023-07-13T01:10:50;9.10;;;2.72;;
64500;SDS011;50874;24.150;-110.320;2023-07-13T01:13:18;4.95;;;2.85;;
64500;SDS011;50874;24.150;-110.320;2023-07-13T01:15:45;4.70;;;2.90;;
64500;SDS011;50874;24.150;-110.320;2023-07-13T01:18:17;4.13;;;2.75;;
64500;SDS011;50874;24.150;-110.320;2023-07-13T01:21:04;6.80;;;3.30;;
64500;SDS011;50874;24.150;-110.320;2023-07-13T01:23:31;5.68;;;3.13;;
64500;SDS011;50874;24.150;-110.320;2023-07-13T01:25:58;5.25;;;2.83;;
64500;SDS011;50874;24.150;-110.320;2023-07-13T01:28:25;8.25;;;3.50;;
64500;SDS011;50874;24.150;-110.320;2023-07-13T01:30:53;5.43;;;3.25;;
64500;SDS011;50874;24.150;-110.320;2023-07-13T01:33:21;9.75;;;3.05;;
64500;SDS011;50874;24.150;-110.320;2023-07-13T01:35:48;4.47;;;2.70;;
64500;SDS011;50874;24.150;-110.320;2023-07-13T01:38:17;8.90;;;3.35;;
64500;SDS011;50874;24.150;-110.320;2023-07-13T01:40:46;5.25;;;3.22;;
64500;SDS011;50874;24.150;-110.320;2023-07-13T01:43:12;6.63;;;2.90;;
64500;SDS011;50874;24.150;-110.320;2023-07-13T01:45:39;5.35;;;2.80;;
64500;SDS011;50874;24.150;-110.320;2023-07-13T01:48:06;5.15;;;3.20;;
64500;SDS011;50874;24.150;-110.320;2023-07-13T01:50:33;7.88;;;2.95;;
64500;SDS011;50874;24.150;-110.320;2023-07-13T01:53:00;3.22;;;2.55;;
64500;SDS011;50874;24.150;-110.320;2023-07-13T01:55:27;4.18;;;2.55;;
64500;SDS011;50874;24.150;-110.320;2023-07-13T01:57:54;8.18;;;3.47;;
64500;SDS011;50874;24.150;-110.320;2023-07-13T02:00:21;6.60;;;3.33;;
64500;SDS011;50874;24.150;-110.320;2023-07-13T02:02:47;3.90;;;2.80;;
64500;SDS011;50874;24.150;-110.320;2023-07-13T02:05:14;9.98;;;3.30;;
64500;SDS011;50874;24.150;-110.320;2023-07-13T02:07:41;5.93;;;2.92;;
64500;SDS011;50874;24.150;-110.320;2023-07-13T02:10:08;6.20;;;3.30;;
64500;SDS011;50874;24.150;-110.320;2023-07-13T02:12:35;5.85;;;3.40;;
64500;SDS011;50874;24.150;-110.320;2023-07-13T02:15:03;5.75;;;3.25;;
64500;SDS011;50874;24.150;-110.320;2023-07-13T02:17:31;9.50;;;3.90;;
64500;SDS011;50874;24.150;-110.320;2023-07-13T02:19:59;6.70;;;3.83;;
64500;SDS011;50874;24.150;-110.320;2023-07-13T02:22:26;5.70;;;4.47;;
64500;SDS011;50874;24.150;-110.320;2023-07-13T02:24:52;7.00;;;3.80;;
64500;SDS011;50874;24.150;-110.320;2023-07-13T02:27:19;9.70;;;4.07;;
64500;SDS011;50874;24.150;-110.320;2023-07-13T02:29:45;6.63;;;4.25;;
64500;SDS011;50874;24.150;-110.320;2023-07-13T02:32:12;8.88;;;4.45;;
64500;SDS011;50874;24.150;-110.320;2023-07-13T02:34:40;8.73;;;4.25;;
64500;SDS011;50874;24.150;-110.320;2023-07-13T02:37:07;10.07;;;4.78;;
64500;SDS011;50874;24.150;-110.320;2023-07-13T02:39:33;7.85;;;5.07;;
64500;SDS011;50874;24.150;-110.320;2023-07-13T02:42:00;9.63;;;5.40;;
64500;SDS011;50874;24.150;-110.320;2023-07-13T02:44:27;9.52;;;5.45;;
64500;SDS011;50874;24.150;-110.320;2023-07-13T02:46:53;11.45;;;5.78;;
64500;SDS011;50874;24.150;-110.320;2023-07-13T02:49:20;8.65;;;6.07;;
64500;SDS011;50874;24.150;-110.320;2023-07-13T02:51:46;8.52;;;5.72;;
64500;SDS011;50874;24.150;-110.320;2023-07-13T02:54:13;10.43;;;5.65;;
64500;SDS011;50874;24.150;-110.320;2023-07-13T02:56:40;9.93;;;6.03;;
64500;SDS011;50874;24.150;-110.320;2023-07-13T02:59:08;10.75;;;6.25;;
64500;SDS011;50874;24.150;-110.320;2023-07-13T03:01:36;15.02;;;6.32;;
64500;SDS011;50874;24.150;-110.320;2023-07-13T03:04:02;12.00;;;6.70;;
64500;SDS011;50874;24.150;-110.320;2023-07-13T03:06:30;14.63;;;7.55;;
64500;SDS011;50874;24.150;-110.320;2023-07-13T03:08:58;10.02;;;6.85;;
64500;SDS011;50874;24.150;-110.320;2023-07-13T03:11:25;11.95;;;6.90;;
64500;SDS011;50874;24.150;-110.320;2023-07-13T03:13:52;8.90;;;5.75;;
64500;SDS011;50874;24.150;-110.320;2023-07-13T03:16:19;10.25;;;6.13;;
64500;SDS011;50874;24.150;-110.320;2023-07-13T03:18:45;11.98;;;6.68;;
64500;SDS011;50874;24.150;-110.320;2023-07-13T03:21:13;9.65;;;7.07;;
64500;SDS011;50874;24.150;-110.320;2023-07-13T03:23:39;10.80;;;5.80;;
64500;SDS011;50874;24.150;-110.320;2023-07-13T03:26:10;11.45;;;6.63;;
64500;SDS011;50874;24.150;-110.320;2023-07-13T03:28:39;11.87;;;6.00;;
64500;SDS011;50874;24.150;-110.320;2023-07-13T03:31:07;8.30;;;5.68;;
64500;SDS011;50874;24.150;-110.320;2023-07-13T03:33:54;11.27;;;6.03;;
64500;SDS011;50874;24.150;-110.320;2023-07-13T03:36:22;10.95;;;5.68;;
64500;SDS011;50874;24.150;-110.320;2023-07-13T03:38:54;10.85;;;5.70;;
64500;SDS011;50874;24.150;-110.320;2023-07-13T03:41:23;12.20;;;5.68;;
64500;SDS011;50874;24.150;-110.320;2023-07-13T03:43:50;9.48;;;5.45;;
64500;SDS011;50874;24.150;-110.320;2023-07-13T03:46:17;10.90;;;4.72;;
64500;SDS011;50874;24.150;-110.320;2023-07-13T03:48:45;8.85;;;4.72;;
64500;SDS011;50874;24.150;-110.320;2023-07-13T03:51:13;7.80;;;5.00;;
64500;SDS011;50874;24.150;-110.320;2023-07-13T03:53:42;10.55;;;4.88;;
64500;SDS011;50874;24.150;-110.320;2023-07-13T03:56:10;5.85;;;4.35;;
64500;SDS011;50874;24.150;-110.320;2023-07-13T03:58:38;8.60;;;3.42;;
64500;SDS011;50874;24.150;-110.320;2023-07-13T04:01:06;10.80;;;4.80;;
64500;SDS011;50874;24.150;-110.320;2023-07-13T04:03:35;5.68;;;4.03;;
64500;SDS011;50874;24.150;-110.320;2023-07-13T04:06:03;5.22;;;3.95;;
64500;SDS011;50874;24.150;-110.320;2023-07-13T04:08:32;7.20;;;3.83;;
64500;SDS011;50874;24.150;-110.320;2023-07-13T04:11:00;5.68;;;3.80;;
64500;SDS011;50874;24.150;-110.320;2023-07-13T04:13:27;6.53;;;3.40;;
64500;SDS011;50874;24.150;-110.320;2023-07-13T04:15:54;7.30;;;3.15;;
64500;SDS011;50874;24.150;-110.320;2023-07-13T04:18:21;10.13;;;4.10;;
64500;SDS011;50874;24.150;-110.320;2023-07-13T04:20:48;5.45;;;3.30;;
64500;SDS011;50874;24.150;-110.320;2023-07-13T04:23:15;9.00;;;3.60;;
64500;SDS011;50874;24.150;-110.320;2023-07-13T04:25:46;6.97;;;3.55;;
64500;SDS011;50874;24.150;-110.320;2023-07-13T04:28:15;8.43;;;3.72;;
64500;SDS011;50874;24.150;-110.320;2023-07-13T04:30:43;9.40;;;3.42;;
64500;SDS011;50874;24.150;-110.320;2023-07-13T04:33:09;6.38;;;2.90;;
64500;SDS011;50874;24.150;-110.320;2023-07-13T04:35:36;11.57;;;3.10;;
64500;SDS011;50874;24.150;-110.320;2023-07-13T04:38:03;10.70;;;3.50;;
64500;SDS011;50874;24.150;-110.320;2023-07-13T04:40:30;12.15;;;3.70;;
64500;SDS011;50874;24.150;-110.320;2023-07-13T04:42:56;6.00;;;3.13;;
64500;SDS011;50874;24.150;-110.320;2023-07-13T04:45:23;6.22;;;3.00;;
64500;SDS011;50874;24.150;-110.320;2023-07-13T04:47:50;6.63;;;3.53;;
64500;SDS011;50874;24.150;-110.320;2023-07-13T04:50:17;9.38;;;3.60;;
64500;SDS011;50874;24.150;-110.320;2023-07-13T04:52:49;11.70;;;3.30;;
64500;SDS011;50874;24.150;-110.320;2023-07-13T04:55:19;10.95;;;3.78;;
64500;SDS011;50874;24.150;-110.320;2023-07-13T04:57:46;10.43;;;3.08;;
64500;SDS011;50874;24.150;-110.320;2023-07-13T05:00:13;5.47;;;2.95;;
64500;SDS011;50874;24.150;-110.320;2023-07-13T05:02:42;9.90;;;3.50;;
64500;SDS011;50874;24.150;-110.320;2023-07-13T05:05:11;5.57;;;3.17;;
64500;SDS011;50874;24.150;-110.320;2023-07-13T05:07:37;5.00;;;3.35;;
64500;SDS011;50874;24.150;-110.320;2023-07-13T05:10:04;7.85;;;3.67;;
64500;SDS011;50874;24.150;-110.320;2023-07-13T05:12:30;15.07;;;3.80;;
64500;SDS011;50874;24.150;-110.320;2023-07-13T05:14:57;4.68;;;3.28;;
64500;SDS011;50874;24.150;-110.320;2023-07-13T05:17:24;6.32;;;3.53;;
64500;SDS011;50874;24.150;-110.320;2023-07-13T05:19:50;6.35;;;3.50;;
64500;SDS011;50874;24.150;-110.320;2023-07-13T05:22:17;6.38;;;3.70;;
64500;SDS011;50874;24.150;-110.320;2023-07-13T05:24:43;9.05;;;4.15;;
64500;SDS011;50874;24.150;-110.320;2023-07-13T05:27:10;7.95;;;4.57;;
64500;SDS011;50874;24.150;-110.320;2023-07-13T05:29:36;7.35;;;3.92;;
64500;SDS011;50874;24.150;-110.320;2023-07-13T05:32:03;9.70;;;3.70;;
64500;SDS011;50874;24.150;-110.320;2023-07-13T05:34:30;9.07;;;3.85;;
64500;SDS011;50874;24.150;-110.320;2023-07-13T05:36:57;6.35;;;4.28;;
64500;SDS011;50874;24.150;-110.320;2023-07-13T05:39:23;10.10;;;5.57;;
64500;SDS011;50874;24.150;-110.320;2023-07-13T05:41:51;9.65;;;4.90;;
64500;SDS011;50874;24.150;-110.320;2023-07-13T05:44:18;9.68;;;5.10;;
64500;SDS011;50874;24.150;-110.320;2023-07-13T05:46:44;9.57;;;5.90;;
64500;SDS011;50874;24.150;-110.320;2023-07-13T05:49:11;10.65;;;4.88;;
64500;SDS011;50874;24.150;-110.320;2023-07-13T05:51:37;9.20;;;4.95;;
64500;SDS011;50874;24.150;-110.320;2023-07-13T05:54:04;8.35;;;5.15;;
64500;SDS011;50874;24.150;-110.320;2023-07-13T05:56:30;7.55;;;5.13;;
64500;SDS011;50874;24.150;-110.320;2023-07-13T05:58:57;6.53;;;4.97;;
64500;SDS011;50874;24.150;-110.320;2023-07-13T06:01:23;16.65;;;5.93;;
64500;SDS011;50874;24.150;-110.320;2023-07-13T06:03:50;9.00;;;5.80;;
64500;SDS011;50874;24.150;-110.320;2023-07-13T06:06:16;7.80;;;5.75;;
64500;SDS011;50874;24.150;-110.320;2023-07-13T06:08:43;11.20;;;6.50;;
64500;SDS011;50874;24.150;-110.320;2023-07-13T06:11:12;8.35;;;5.68;;
64500;SDS011;50874;24.150;-110.320;2023-07-13T06:13:41;11.13;;;5.90;;
64500;SDS011;50874;24.150;-110.320;2023-07-13T06:16:07;12.20;;;6.00;;
64500;SDS011;50874;24.150;-110.320;2023-07-13T06:18:35;7.40;;;4.97;;
64500;SDS011;50874;24.150;-110.320;2023-07-13T06:21:08;11.10;;;5.75;;
64500;SDS011;50874;24.150;-110.320;2023-07-13T06:23:36;8.85;;;5.70;;
64500;SDS011;50874;24.150;-110.320;2023-07-13T06:26:04;11.60;;;6.18;;
64500;SDS011;50874;24.150;-110.320;2023-07-13T06:28:31;9.63;;;5.22;;
64500;SDS011;50874;24.150;-110.320;2023-07-13T06:30:58;8.10;;;5.60;;
64500;SDS011;50874;24.150;-110.320;2023-07-13T06:33:25;10.73;;;4.80;;
64500;SDS011;50874;24.150;-110.320;2023-07-13T06:35:52;11.32;;;4.80;;
64500;SDS011;50874;24.150;-110.320;2023-07-13T06:38:20;7.85;;;4.53;;
64500;SDS011;50874;24.150;-110.320;2023-07-13T06:40:47;7.43;;;4.97;;
64500;SDS011;50874;24.150;-110.320;2023-07-13T06:43:13;13.80;;;5.25;;
64500;SDS011;50874;24.150;-110.320;2023-07-13T06:45:43;9.63;;;5.07;;
64500;SDS011;50874;24.150;-110.320;2023-07-13T06:48:13;6.82;;;4.35;;
64500;SDS011;50874;24.150;-110.320;2023-07-13T06:50:41;8.20;;;5.35;;
64500;SDS011;50874;24.150;-110.320;2023-07-13T06:53:08;8.20;;;4.50;;
64500;SDS011;50874;24.150;-110.320;2023-07-13T06:55:38;9.63;;;4.95;;
64500;SDS011;50874;24.150;-110.320;2023-07-13T06:58:05;10.63;;;5.70;;
64500;SDS011;50874;24.150;-110.320;2023-07-13T07:00:32;8.68;;;5.07;;
64500;SDS011;50874;24.150;-110.320;2023-07-13T07:02:58;6.90;;;4.07;;
64500;SDS011;50874;24.150;-110.320;2023-07-13T07:05:25;8.02;;;4.25;;
64500;SDS011;50874;24.150;-110.320;2023-07-13T07:07:52;7.10;;;4.30;;
64500;SDS011;50874;24.150;-110.320;2023-07-13T07:10:19;9.07;;;4.00;;
64500;SDS011;50874;24.150;-110.320;2023-07-13T07:12:46;9.60;;;4.88;;
64500;SDS011;50874;24.150;-110.320;2023-07-13T07:15:12;8.30;;;4.72;;
64500;SDS011;50874;24.150;-110.320;2023-07-13T07:17:39;8.70;;;4.68;;
64500;SDS011;50874;24.150;-110.320;2023-07-13T07:20:06;8.63;;;4.07;;
64500;SDS011;50874;24.150;-110.320;2023-07-13T07:22:33;6.90;;;4.40;;
64500;SDS011;50874;24.150;-110.320;2023-07-13T07:24:59;7.45;;;4.32;;
64500;SDS011;50874;24.150;-110.320;2023-07-13T07:27:26;9.35;;;4.43;;
64500;SDS011;50874;24.150;-110.320;2023-07-13T07:29:52;9.48;;;4.38;;
64500;SDS011;50874;24.150;-110.320;2023-07-13T07:32:19;9.52;;;4.07;;
64500;SDS011;50874;24.150;-110.320;2023-07-13T07:34:46;11.02;;;4.40;;
64500;SDS011;50874;24.150;-110.320;2023-07-13T07:37:13;5.70;;;3.65;;
64500;SDS011;50874;24.150;-110.320;2023-07-13T07:39:39;6.38;;;3.22;;
64500;SDS011;50874;24.150;-110.320;2023-07-13T07:42:06;6.78;;;3.72;;
64500;SDS011;50874;24.150;-110.320;2023-07-13T07:44:33;7.05;;;3.38;;
64500;SDS011;50874;24.150;-110.320;2023-07-13T07:47:00;6.00;;;3.35;;
64500;SDS011;50874;24.150;-110.320;2023-07-13T07:49:27;9.63;;;3.90;;
64500;SDS011;50874;24.150;-110.320;2023-07-13T07:51:53;7.28;;;3.72;;
64500;SDS011;50874;24.150;-110.320;2023-07-13T07:54:19;6.97;;;3.85;;
64500;SDS011;50874;24.150;-110.320;2023-07-13T07:56:46;6.13;;;3.67;;
64500;SDS011;50874;24.150;-110.320;2023-07-13T07:59:12;10.00;;;3.83;;
64500;SDS011;50874;24.150;-110.320;2023-07-13T08:01:39;7.40;;;4.10;;
64500;SDS011;50874;24.150;-110.320;2023-07-13T08:04:05;6.32;;;3.75;;
64500;SDS011;50874;24.150;-110.320;2023-07-13T08:06:32;5.68;;;3.95;;
64500;SDS011;50874;24.150;-110.320;2023-07-13T08:08:59;4.88;;;3.30;;
64500;SDS011;50874;24.150;-110.320;2023-07-13T08:11:27;5.85;;;3.17;;
64500;SDS011;50874;24.150;-110.320;2023-07-13T08:13:54;7.57;;;3.75;;
64500;SDS011;50874;24.150;-110.320;2023-07-13T08:16:21;9.23;;;3.50;;
64500;SDS011;50874;24.150;-110.320;2023-07-13T08:18:48;5.47;;;3.28;;
64500;SDS011;50874;24.150;-110.320;2023-07-13T08:21:15;6.78;;;3.33;;
64500;SDS011;50874;24.150;-110.320;2023-07-13T08:23:42;10.45;;;3.22;;
64500;SDS011;50874;24.150;-110.320;2023-07-13T08:26:09;7.82;;;3.25;;
64500;SDS011;50874;24.150;-110.320;2023-07-13T08:28:35;6.07;;;3.13;;
64500;SDS011;50874;24.150;-110.320;2023-07-13T08:31:05;5.72;;;3.20;;
64500;SDS011;50874;24.150;-110.320;2023-07-13T08:33:34;5.53;;;3.17;;
64500;SDS011;50874;24.150;-110.320;2023-07-13T08:36:01;5.10;;;3.17;;
64500;SDS011;50874;24.150;-110.320;2023-07-13T08:38:28;6.72;;;2.78;;
64500;SDS011;50874;24.150;-110.320;2023-07-13T08:40:55;4.57;;;3.33;;
64500;SDS011;50874;24.150;-110.320;2023-07-13T08:43:25;4.43;;;2.80;;
64500;SDS011;50874;24.150;-110.320;2023-07-13T08:45:58;6.28;;;2.80;;
64500;SDS011;50874;24.150;-110.320;2023-07-13T08:48:31;4.85;;;2.65;;
64500;SDS011;50874;24.150;-110.320;2023-07-13T08:56:46;3.15;;;2.67;;
64500;SDS011;50874;24.150;-110.320;2023-07-13T08:59:16;7.70;;;3.13;;
64500;SDS011;50874;24.150;-110.320;2023-07-13T09:04:40;4.30;;;2.58;;
64500;SDS011;50874;24.150;-110.320;2023-07-13T09:07:24;7.63;;;3.30;;
64500;SDS011;50874;24.150;-110.320;2023-07-13T09:09:59;4.57;;;2.95;;
64500;SDS011;50874;24.150;-110.320;2023-07-13T09:13:17;5.15;;;3.03;;
64500;SDS011;50874;24.150;-110.320;2023-07-13T09:15:41;4.80;;;2.80;;
64500;SDS011;50874;24.150;-110.320;2023-07-13T09:18:11;6.00;;;2.63;;
64500;SDS011;50874;24.150;-110.320;2023-07-13T09:23:09;4.40;;;2.78;;
64500;SDS011;50874;24.150;-110.320;2023-07-13T09:28:15;6.88;;;2.80;;
64500;SDS011;50874;24.150;-110.320;2023-07-13T09:33:30;7.30;;;2.88;;
64500;SDS011;50874;24.150;-110.320;2023-07-13T09:35:57;8.75;;;3.10;;
64500;SDS011;50874;24.150;-110.320;2023-07-13T09:38:24;7.40;;;3.38;;
64500;SDS011;50874;24.150;-110.320;2023-07-13T09:46:39;6.20;;;3.28;;
64500;SDS011;50874;24.150;-110.320;2023-07-13T09:49:11;8.40;;;3.33;;
64500;SDS011;50874;24.150;-110.320;2023-07-13T09:51:38;6.32;;;3.05;;
64500;SDS011;50874;24.150;-110.320;2023-07-13T09:54:19;6.60;;;2.67;;
64500;SDS011;50874;24.150;-110.320;2023-07-13T09:56:53;5.60;;;3.20;;
64500;SDS011;50874;24.150;-110.320;2023-07-13T09:59:22;5.13;;;3.47;;
64500;SDS011;50874;24.150;-110.320;2023-07-13T10:01:53;6.82;;;3.10;;
64500;SDS011;50874;24.150;-110.320;2023-07-13T10:04:19;6.28;;;2.90;;
64500;SDS011;50874;24.150;-110.320;2023-07-13T10:06:51;7.15;;;3.38;;
64500;SDS011;50874;24.150;-110.320;2023-07-13T10:09:32;5.85;;;2.97;;
64500;SDS011;50874;24.150;-110.320;2023-07-13T10:11:58;7.88;;;3.05;;
64500;SDS011;50874;24.150;-110.320;2023-07-13T10:14:25;6.00;;;3.08;;
64500;SDS011;50874;24.150;-110.320;2023-07-13T10:17:00;8.20;;;3.30;;
64500;SDS011;50874;24.150;-110.320;2023-07-13T10:19:31;6.45;;;3.20;;
64500;SDS011;50874;24.150;-110.320;2023-07-13T10:22:47;5.30;;;2.97;;
64500;SDS011;50874;24.150;-110.320;2023-07-13T10:24:49;3.88;;;2.78;;
64500;SDS011;50874;24.150;-110.320;2023-07-13T10:27:17;6.22;;;3.20;;
64500;SDS011;50874;24.150;-110.320;2023-07-13T10:32:26;6.93;;;3.88;;
64500;SDS011;50874;24.150;-110.320;2023-07-13T10:34:53;7.60;;;3.03;;
64500;SDS011;50874;24.150;-110.320;2023-07-13T10:37:24;8.10;;;3.67;;
64500;SDS011;50874;24.150;-110.320;2023-07-13T10:39:55;6.38;;;3.00;;
64500;SDS011;50874;24.150;-110.320;2023-07-13T10:42:40;5.50;;;3.17;;
64500;SDS011;50874;24.150;-110.320;2023-07-13T10:45:20;4.38;;;2.80;;
64500;SDS011;50874;24.150;-110.320;2023-07-13T10:47:48;6.10;;;3.13;;
64500;SDS011;50874;24.150;-110.320;2023-07-13T10:50:22;4.40;;;3.37;;
64500;SDS011;50874;24.150;-110.320;2023-07-13T10:52:51;9.60;;;3.63;;
64500;SDS011;50874;24.150;-110.320;2023-07-13T10:58:31;5.05;;;2.97;;
64500;SDS011;50874;24.150;-110.320;2023-07-13T11:22:43;4.15;;;2.80;;
64500;SDS011;50874;24.150;-110.320;2023-07-13T11:28:05;4.10;;;2.20;;
64500;SDS011;50874;24.150;-110.320;2023-07-13T11:30:36;12.00;;;2.88;;
64500;SDS011;50874;24.150;-110.320;2023-07-13T11:36:04;3.22;;;2.00;;
64500;SDS011;50874;24.150;-110.320;2023-07-13T11:38:32;2.80;;;2.35;;
64500;SDS011;50874;24.150;-110.320;2023-07-13T11:41:21;2.20;;;1.95;;
64500;SDS011;50874;24.150;-110.320;2023-07-13T11:43:55;5.15;;;2.40;;
64500;SDS011;50874;24.150;-110.320;2023-07-13T11:46:32;4.60;;;2.13;;
64500;SDS011;50874;24.150;-110.320;2023-07-13T11:48:59;6.97;;;2.65;;
64500;SDS011;50874;24.150;-110.320;2023-07-13T11:51:35;3.92;;;2.30;;
64500;SDS011;50874;24.150;-110.320;2023-07-13T11:54:04;3.35;;;2.40;;
64500;SDS011;50874;24.150;-110.320;2023-07-13T11:56:39;3.63;;;2.38;;
64500;SDS011;50874;24.150;-110.320;2023-07-13T11:59:07;6.20;;;2.80;;
64500;SDS011;50874;24.150;-110.320;2023-07-13T12:01:41;6.15;;;2.78;;
64500;SDS011;50874;24.150;-110.320;2023-07-13T12:04:31;5.28;;;2.55;;
64500;SDS011;50874;24.150;-110.320;2023-07-13T12:07:07;4.28;;;2.70;;
64500;SDS011;50874;24.150;-110.320;2023-07-13T12:09:40;3.42;;;2.33;;
64500;SDS011;50874;24.150;-110.320;2023-07-13T12:12:11;2.83;;;2.53;;
64500;SDS011;50874;24.150;-110.320;2023-07-13T12:14:44;7.80;;;2.40;;
64500;SDS011;50874;24.150;-110.320;2023-07-13T12:17:21;6.25;;;2.63;;
64500;SDS011;50874;24.150;-110.320;2023-07-13T12:19:49;6.85;;;2.65;;
64500;SDS011;50874;24.150;-110.320;2023-07-13T12:22:18;4.68;;;2.50;;
64500;SDS011;50874;24.150;-110.320;2023-07-13T12:24:46;4.28;;;2.50;;
64500;SDS011;50874;24.150;-110.320;2023-07-13T12:27:23;5.65;;;2.50;;
64500;SDS011;50874;24.150;-110.320;2023-07-13T12:29:52;5.38;;;2.53;;
64500;SDS011;50874;24.150;-110.320;2023-07-13T12:32:27;5.05;;;2.72;;
64500;SDS011;50874;24.150;-110.320;2023-07-13T12:34:56;9.10;;;2.55;;
64500;SDS011;50874;24.150;-110.320;2023-07-13T12:37:42;5.57;;;2.67;;
64500;SDS011;50874;24.150;-110.320;2023-07-13T12:40:13;3.88;;;2.80;;
64500;SDS011;50874;24.150;-110.320;2023-07-13T12:42:50;4.97;;;2.22;;
64500;SDS011;50874;24.150;-110.320;2023-07-13T12:45:19;3.95;;;1.90;;
64500;SDS011;50874;24.150;-110.320;2023-07-13T12:47:55;4.03;;;2.67;;
64500;SDS011;50874;24.150;-110.320;2023-07-13T12:50:37;8.45;;;2.50;;
64500;SDS011;50874;24.150;-110.320;2023-07-13T12:53:16;5.60;;;2.70;;
64500;SDS011;50874;24.150;-110.320;2023-07-13T12:58:17;3.22;;;2.00;;
64500;SDS011;50874;24.150;-110.320;2023-07-13T13:00:54;4.95;;;2.10;;
64500;SDS011;50874;24.150;-110.320;2023-07-13T13:03:29;5.18;;;2.35;;
64500;SDS011;50874;24.150;-110.320;2023-07-13T13:05:59;6.53;;;2.58;;
64500;SDS011;50874;24.150;-110.320;2023-07-13T13:10:58;4.72;;;1.90;;
64500;SDS011;50874;24.150;-110.320;2023-07-13T13:13:26;4.25;;;2.00;;
64500;SDS011;50874;24.150;-110.320;2023-07-13T13:15:52;5.55;;;2.40;;
64500;SDS011;50874;24.150;-110.320;2023-07-13T13:18:19;11.65;;;2.42;;
64500;SDS011;50874;24.150;-110.320;2023-07-13T13:20:49;3.20;;;1.98;;
64500;SDS011;50874;24.150;-110.320;2023-07-13T13:23:18;6.43;;;2.58;;
64500;SDS011;50874;24.150;-110.320;2023-07-13T13:25:46;3.45;;;1.90;;
64500;SDS011;50874;24.150;-110.320;2023-07-13T13:28:17;5.35;;;1.90;;
64500;SDS011;50874;24.150;-110.320;2023-07-13T13:30:46;4.60;;;2.28;;
64500;SDS011;50874;24.150;-110.320;2023-07-13T13:33:15;4.38;;;2.20;;
64500;SDS011;50874;24.150;-110.320;2023-07-13T13:35:43;2.03;;;1.80;;
64500;SDS011;50874;24.150;-110.320;2023-07-13T13:40:41;3.20;;;2.13;;
64500;SDS011;50874;24.150;-110.320;2023-07-13T13:43:15;5.18;;;1.83;;
64500;SDS011;50874;24.150;-110.320;2023-07-13T13:45:53;8.40;;;2.22;;
64500;SDS011;50874;24.150;-110.320;2023-07-13T13:48:29;2.25;;;1.92;;
64500;SDS011;50874;24.150;-110.320;2023-07-13T13:51:01;6.80;;;1.73;;
64500;SDS011;50874;24.150;-110.320;2023-07-13T13:53:40;5.80;;;1.98;;
64500;SDS011;50874;24.150;-110.320;2023-07-13T13:56:06;4.18;;;2.00;;
64500;SDS011;50874;24.150;-110.320;2023-07-13T13:58:33;6.28;;;2.33;;
64500;SDS011;50874;24.150;-110.320;2023-07-13T14:01:00;7.50;;;2.17;;
64500;SDS011;50874;24.150;-110.320;2023-07-13T14:03:26;7.43;;;2.10;;
64500;SDS011;50874;24.150;-110.320;2023-07-13T14:05:53;3.75;;;1.75;;
64500;SDS011;50874;24.150;-110.320;2023-07-13T14:08:22;3.85;;;1.95;;
64500;SDS011;50874;24.150;-110.320;2023-07-13T14:10:49;8.70;;;2.00;;
64500;SDS011;50874;24.150;-110.320;2023-07-13T14:15:48;3.65;;;2.03;;
64500;SDS011;50874;24.150;-110.320;2023-07-13T14:18:15;5.32;;;2.10;;
64500;SDS011;50874;24.150;-110.320;2023-07-13T14:20:47;6.68;;;2.38;;
64500;SDS011;50874;24.150;-110.320;2023-07-13T14:23:16;9.68;;;2.92;;
64500;SDS011;50874;24.150;-110.320;2023-07-13T14:25:44;7.13;;;2.30;;
64500;SDS011;50874;24.150;-110.320;2023-07-13T14:30:52;14.98;;;2.33;;
64500;SDS011;50874;24.150;-110.320;2023-07-13T14:33:20;6.07;;;2.67;;
64500;SDS011;50874;24.150;-110.320;2023-07-13T14:35:46;10.07;;;2.55;;
64500;SDS011;50874;24.150;-110.320;2023-07-13T14:38:15;6.70;;;2.55;;
64500;SDS011;50874;24.150;-110.320;2023-07-13T14:40:45;8.63;;;2.50;;
64500;SDS011;50874;24.150;-110.320;2023-07-13T14:43:12;6.93;;;2.20;;
64500;SDS011;50874;24.150;-110.320;2023-07-13T14:45:41;9.23;;;2.25;;
64500;SDS011;50874;24.150;-110.320;2023-07-13T14:48:20;10.38;;;2.00;;
64500;SDS011;50874;24.150;-110.320;2023-07-13T14:50:53;4.23;;;2.03;;
64500;SDS011;50874;24.150;-110.320;2023-07-13T14:55:48;3.35;;;1.83;;
64500;SDS011;50874;24.150;-110.320;2023-07-13T14:58:15;3.75;;;2.00;;
64500;SDS011;50874;24.150;-110.320;2023-07-13T15:00:41;11.48;;;2.55;;
64500;SDS011;50874;24.150;-110.320;2023-07-13T15:03:15;10.88;;;2.53;;
64500;SDS011;50874;24.150;-110.320;2023-07-13T15:05:46;7.10;;;2.17;;
64500;SDS011;50874;24.150;-110.320;2023-07-13T15:08:13;10.23;;;2.67;;
64500;SDS011;50874;24.150;-110.320;2023-07-13T15:10:41;4.05;;;1.80;;
64500;SDS011;50874;24.150;-110.320;2023-07-13T15:13:18;6.55;;;2.80;;
64500;SDS011;50874;24.150;-110.320;2023-07-13T15:15:46;5.15;;;2.00;;
64500;SDS011;50874;24.150;-110.320;2023-07-13T15:18:17;3.70;;;2.00;;
64500;SDS011;50874;24.150;-110.320;2023-07-13T15:20:46;3.70;;;1.92;;
64500;SDS011;50874;24.150;-110.320;2023-07-13T15:23:14;3.92;;;1.88;;
64500;SDS011;50874;24.150;-110.320;2023-07-13T15:25:42;6.78;;;2.03;;
64500;SDS011;50874;24.150;-110.320;2023-07-13T15:28:10;7.55;;;2.40;;
64500;SDS011;50874;24.150;-110.320;2023-07-13T15:30:44;5.50;;;2.17;;